createdAt,value
2023-02-12T00:05:54.377Z,16.80
2023-02-12T00:27:40.273Z,17.40
2023-02-12T00:49:26.150Z,16.10
2023-02-12T01:11:15.320Z,15.30
2023-02-12T01:33:01.476Z,12.70
2023-02-12T01:54:47.879Z,15.30
2023-02-12T02:16:38.188Z,13.20
2023-02-12T02:38:33.324Z,12.40
2023-02-12T03:00:23.439Z,11.80
2023-02-12T03:22:14.215Z,10.00
2023-02-12T03:44:06.962Z,9.80
2023-02-12T04:05:53.295Z,9.10
2023-02-12T04:27:45.169Z,9.40
2023-02-12T04:49:31.310Z,10.20
2023-02-12T05:11:17.052Z,9.80
2023-02-12T05:44:38.986Z,9.90
2023-02-12T06:06:25.940Z,10.30
2023-02-12T06:28:14.288Z,9.70
2023-02-12T06:50:00.011Z,10.50
2023-02-12T07:11:45.716Z,9.90
2023-02-12T07:33:31.523Z,9.80
2023-02-12T07:55:17.750Z,10.70
2023-02-12T08:17:03.392Z,9.50
2023-02-12T08:38:49.474Z,9.30
2023-02-12T09:00:35.503Z,11.00
2023-02-12T09:22:21.275Z,10.40
2023-02-12T09:44:12.670Z,11.10
2023-02-12T10:13:37.972Z,10.70
2023-02-12T10:35:24.955Z,9.30
2023-02-12T10:57:15.753Z,8.30
2023-02-12T11:19:04.825Z,8.10
2023-02-12T11:40:57.978Z,7.20
2023-02-12T12:02:50.173Z,5.70
2023-02-12T12:24:44.728Z,6.50
2023-02-12T12:46:50.689Z,6.70
2023-02-12T13:08:47.456Z,5.90
2023-02-12T13:30:40.705Z,5.40
2023-02-12T13:52:34.729Z,4.10
2023-02-12T14:14:29.227Z,3.30
2023-02-12T14:36:21.126Z,3.50
2023-02-12T14:58:16.987Z,4.40
2023-02-12T15:20:07.236Z,4.60
2023-02-12T15:41:53.356Z,4.50
2023-02-12T16:03:41.915Z,6.10
2023-02-12T16:25:30.671Z,7.50
2023-02-12T16:47:24.001Z,10.90
2023-02-12T17:09:10.773Z,14.20
2023-02-12T17:30:57.649Z,14.20
2023-02-12T17:52:43.715Z,14.90
2023-02-12T18:14:29.472Z,13.80
2023-02-12T18:36:17.096Z,14.40
2023-02-12T18:58:02.739Z,16.00
2023-02-12T19:19:50.131Z,15.70
2023-02-12T19:41:40.952Z,15.10
2023-02-12T20:03:27.475Z,14.00
2023-02-12T20:25:13.148Z,16.00
2023-02-12T20:46:58.837Z,16.20
2023-02-12T21:08:45.262Z,16.60
2023-02-12T21:30:30.969Z,15.20
2023-02-12T22:01:14.527Z,15.40
2023-02-12T22:22:58.593Z,14.30
2023-02-12T22:44:41.730Z,14.00
2023-02-12T23:06:26.869Z,14.60
2023-02-12T23:28:09.889Z,15.10
2023-02-12T23:49:52.893Z,14.60
